sensor_id;sensor_type;location;lat;lon;timestamp;temperature;humidity
14473;DHT22;7322;50.872;4.386;2023-04-24T00:02:08;19.70;99.90
14473;DHT22;7322;50.872;4.386;2023-04-24T00:04:37;19.70;99.90
14473;DHT22;7322;50.872;4.386;2023-04-24T00:07:06;19.70;99.90
14473;DHT22;7322;50.872;4.386;2023-04-24T00:09:34;19.70;99.90
14473;DHT22;7322;50.872;4.386;2023-04-24T00:12:00;19.70;99.90
14473;DHT22;7322;50.872;4.386;2023-04-24T00:14:34;19.70;99.90
14473;DHT22;7322;50.872;4.386;2023-04-24T00:17:02;19.70;99.90
14473;DHT22;7322;50.872;4.386;2023-04-24T00:19:30;19.70;99.90
14473;DHT22;7322;50.872;4.386;2023-04-24T00:22:24;19.80;99.90
14473;DHT22;7322;50.872;4.386;2023-04-24T00:24:59;19.80;99.90
14473;DHT22;7322;50.872;4.386;2023-04-24T00:34:11;19.70;99.90
14473;DHT22;7322;50.872;4.386;2023-04-24T00:39:37;19.70;99.90
14473;DHT22;7322;50.872;4.386;2023-04-24T00:42:04;19.70;99.90
14473;DHT22;7322;50.872;4.386;2023-04-24T00:44:33;19.70;99.90
14473;DHT22;7322;50.872;4.386;2023-04-24T00:47:01;19.70;99.90
14473;DHT22;7322;50.872;4.386;2023-04-24T00:49:28;19.70;99.90
14473;DHT22;7322;50.872;4.386;2023-04-24T00:51:55;19.70;99.90
14473;DHT22;7322;50.872;4.386;2023-04-24T00:54:22;19.70;99.90
14473;DHT22;7322;50.872;4.386;2023-04-24T00:56:51;19.70;99.90
14473;DHT22;7322;50.872;4.386;2023-04-24T00:59:18;19.70;99.90
14473;DHT22;7322;50.872;4.386;2023-04-24T01:01:45;19.70;99.90
14473;DHT22;7322;50.872;4.386;2023-04-24T01:04:13;19.70;99.90
14473;DHT22;7322;50.872;4.386;2023-04-24T01:06:42;19.70;99.90
14473;DHT22;7322;50.872;4.386;2023-04-24T01:09:10;19.70;99.90
14473;DHT22;7322;50.872;4.386;2023-04-24T01:11:39;19.70;99.90
14473;DHT22;7322;50.872;4.386;2023-04-24T01:14:09;19.70;99.90
14473;DHT22;7322;50.872;4.386;2023-04-24T01:16:36;19.70;99.90
14473;DHT22;7322;50.872;4.386;2023-04-24T01:19:05;19.70;99.90
14473;DHT22;7322;50.872;4.386;2023-04-24T01:21:35;19.70;99.90
14473;DHT22;7322;50.872;4.386;2023-04-24T01:24:05;19.70;99.90
14473;DHT22;7322;50.872;4.386;2023-04-24T01:26:32;19.80;99.90
14473;DHT22;7322;50.872;4.386;2023-04-24T01:29:00;19.70;99.90
14473;DHT22;7322;50.872;4.386;2023-04-24T01:31:27;19.70;99.90
14473;DHT22;7322;50.872;4.386;2023-04-24T01:33:54;19.70;99.90
14473;DHT22;7322;50.872;4.386;2023-04-24T01:36:24;19.70;99.90
14473;DHT22;7322;50.872;4.386;2023-04-24T01:38:52;19.70;99.90
14473;DHT22;7322;50.872;4.386;2023-04-24T01:41:21;19.70;99.90
14473;DHT22;7322;50.872;4.386;2023-04-24T01:43:49;19.80;99.90
14473;DHT22;7322;50.872;4.386;2023-04-24T01:46:16;19.70;99.90
14473;DHT22;7322;50.872;4.386;2023-04-24T01:48:44;19.70;99.90
14473;DHT22;7322;50.872;4.386;2023-04-24T01:51:12;19.70;99.90
14473;DHT22;7322;50.872;4.386;2023-04-24T01:53:39;19.70;99.90
14473;DHT22;7322;50.872;4.386;2023-04-24T01:56:06;19.70;99.90
14473;DHT22;7322;50.872;4.386;2023-04-24T01:58:35;19.70;99.90
14473;DHT22;7322;50.872;4.386;2023-04-24T02:01:02;19.70;99.90
14473;DHT22;7322;50.872;4.386;2023-04-24T02:03:29;19.70;99.90
14473;DHT22;7322;50.872;4.386;2023-04-24T02:05:56;19.70;99.90
14473;DHT22;7322;50.872;4.386;2023-04-24T02:08:23;19.70;99.90
14473;DHT22;7322;50.872;4.386;2023-04-24T02:10:51;19.70;99.90
14473;DHT22;7322;50.872;4.386;2023-04-24T02:13:18;19.70;99.90
14473;DHT22;7322;50.872;4.386;2023-04-24T02:15:46;19.70;99.90
14473;DHT22;7322;50.872;4.386;2023-04-24T02:18:13;19.70;99.90
14473;DHT22;7322;50.872;4.386;2023-04-24T02:20:41;19.70;99.90
14473;DHT22;7322;50.872;4.386;2023-04-24T02:23:08;19.70;99.90
14473;DHT22;7322;50.872;4.386;2023-04-24T02:25:35;19.70;99.90
14473;DHT22;7322;50.872;4.386;2023-04-24T02:28:02;19.70;99.90
14473;DHT22;7322;50.872;4.386;2023-04-24T02:30:29;19.70;99.90
14473;DHT22;7322;50.872;4.386;2023-04-24T02:32:58;19.70;99.90
14473;DHT22;7322;50.872;4.386;2023-04-24T02:35:25;19.70;99.90
14473;DHT22;7322;50.872;4.386;2023-04-24T02:37:52;19.60;99.90
14473;DHT22;7322;50.872;4.386;2023-04-24T02:40:19;19.70;99.90
14473;DHT22;7322;50.872;4.386;2023-04-24T02:42:46;19.70;99.90
14473;DHT22;7322;50.872;4.386;2023-04-24T02:45:13;19.70;99.90
14473;DHT22;7322;50.872;4.386;2023-04-24T02:47:40;19.60;99.90
14473;DHT22;7322;50.872;4.386;2023-04-24T02:50:09;19.60;99.90
14473;DHT22;7322;50.872;4.386;2023-04-24T02:52:36;19.60;99.90
14473;DHT22;7322;50.872;4.386;2023-04-24T02:55:04;19.60;99.90
14473;DHT22;7322;50.872;4.386;2023-04-24T02:57:31;19.60;99.90
14473;DHT22;7322;50.872;4.386;2023-04-24T02:59:58;19.60;99.90
14473;DHT22;7322;50.872;4.386;2023-04-24T03:02:25;19.60;99.90
14473;DHT22;7322;50.872;4.386;2023-04-24T03:04:52;19.60;99.90
14473;DHT22;7322;50.872;4.386;2023-04-24T03:07:20;19.60;99.90
14473;DHT22;7322;50.872;4.386;2023-04-24T03:09:49;19.60;99.90
14473;DHT22;7322;50.872;4.386;2023-04-24T03:12:16;19.60;99.90
14473;DHT22;7322;50.872;4.386;2023-04-24T03:14:43;19.60;99.90
14473;DHT22;7322;50.872;4.386;2023-04-24T03:17:10;19.60;99.90
14473;DHT22;7322;50.872;4.386;2023-04-24T03:19:37;19.60;99.90
14473;DHT22;7322;50.872;4.386;2023-04-24T03:22:04;19.60;99.90
14473;DHT22;7322;50.872;4.386;2023-04-24T03:24:33;19.60;99.90
14473;DHT22;7322;50.872;4.386;2023-04-24T03:27:00;19.60;99.90
14473;DHT22;7322;50.872;4.386;2023-04-24T03:29:27;19.60;99.90
14473;DHT22;7322;50.872;4.386;2023-04-24T03:31:54;19.60;99.90
14473;DHT22;7322;50.872;4.386;2023-04-24T03:34:21;19.50;99.90
14473;DHT22;7322;50.872;4.386;2023-04-24T03:36:48;19.50;99.90
14473;DHT22;7322;50.872;4.386;2023-04-24T03:39:14;19.60;99.90
14473;DHT22;7322;50.872;4.386;2023-04-24T03:41:43;19.50;99.90
14473;DHT22;7322;50.872;4.386;2023-04-24T03:44:10;19.50;99.90
14473;DHT22;7322;50.872;4.386;2023-04-24T03:46:37;19.50;99.90
14473;DHT22;7322;50.872;4.386;2023-04-24T03:49:04;19.60;99.90
14473;DHT22;7322;50.872;4.386;2023-04-24T03:51:31;19.50;99.90
14473;DHT22;7322;50.872;4.386;2023-04-24T03:53:58;19.50;99.90
14473;DHT22;7322;50.872;4.386;2023-04-24T03:56:25;19.50;99.90
14473;DHT22;7322;50.872;4.386;2023-04-24T03:58:53;19.50;99.90
14473;DHT22;7322;50.872;4.386;2023-04-24T04:01:21;19.50;99.90
14473;DHT22;7322;50.872;4.386;2023-04-24T04:03:48;19.50;99.90
14473;DHT22;7322;50.872;4.386;2023-04-24T04:06:15;19.50;99.90
14473;DHT22;7322;50.872;4.386;2023-04-24T04:08:43;19.50;99.90
14473;DHT22;7322;50.872;4.386;2023-04-24T04:11:10;19.50;99.90
14473;DHT22;7322;50.872;4.386;2023-04-24T04:13:37;19.50;99.90
14473;DHT22;7322;50.872;4.386;2023-04-24T04:16:06;19.60;99.90
14473;DHT22;7322;50.872;4.386;2023-04-24T04:18:33;19.60;99.90
14473;DHT22;7322;50.872;4.386;2023-04-24T04:24:22;19.60;99.90
14473;DHT22;7322;50.872;4.386;2023-04-24T04:27:02;19.50;99.90
14473;DHT22;7322;50.872;4.386;2023-04-24T04:29:30;19.50;99.90
14473;DHT22;7322;50.872;4.386;2023-04-24T04:32:01;19.50;99.90
14473;DHT22;7322;50.872;4.386;2023-04-24T04:34:29;19.50;99.90
14473;DHT22;7322;50.872;4.386;2023-04-24T04:37:02;19.50;99.90
14473;DHT22;7322;50.872;4.386;2023-04-24T04:39:36;19.60;99.90
14473;DHT22;7322;50.872;4.386;2023-04-24T04:42:05;19.50;99.90
14473;DHT22;7322;50.872;4.386;2023-04-24T04:44:33;19.50;99.90
14473;DHT22;7322;50.872;4.386;2023-04-24T04:47:06;19.50;99.90
14473;DHT22;7322;50.872;4.386;2023-04-24T04:49:41;19.50;99.90
14473;DHT22;7322;50.872;4.386;2023-04-24T04:55:18;19.50;99.90
14473;DHT22;7322;50.872;4.386;2023-04-24T04:57:50;19.40;99.90
14473;DHT22;7322;50.872;4.386;2023-04-24T05:00:36;19.40;99.90
14473;DHT22;7322;50.872;4.386;2023-04-24T05:03:20;19.50;99.90
14473;DHT22;7322;50.872;4.386;2023-04-24T05:05:54;19.50;99.90
14473;DHT22;7322;50.872;4.386;2023-04-24T05:08:23;19.50;99.90
14473;DHT22;7322;50.872;4.386;2023-04-24T05:10:52;19.50;99.90
14473;DHT22;7322;50.872;4.386;2023-04-24T05:13:27;19.50;99.90
14473;DHT22;7322;50.872;4.386;2023-04-24T05:15:54;19.50;99.90
14473;DHT22;7322;50.872;4.386;2023-04-24T05:21:34;19.50;99.90
14473;DHT22;7322;50.872;4.386;2023-04-24T05:24:01;19.50;99.90
14473;DHT22;7322;50.872;4.386;2023-04-24T05:26:30;19.60;99.90
14473;DHT22;7322;50.872;4.386;2023-04-24T05:28:58;19.70;99.90
14473;DHT22;7322;50.872;4.386;2023-04-24T05:31:32;19.80;99.90
14473;DHT22;7322;50.872;4.386;2023-04-24T05:34:09;19.80;99.90
14473;DHT22;7322;50.872;4.386;2023-04-24T05:36:54;19.90;99.90
14473;DHT22;7322;50.872;4.386;2023-04-24T05:39:29;20.00;99.90
14473;DHT22;7322;50.872;4.386;2023-04-24T05:45:28;20.00;99.90
14473;DHT22;7322;50.872;4.386;2023-04-24T05:48:01;20.10;99.90
14473;DHT22;7322;50.872;4.386;2023-04-24T05:50:29;20.10;99.90
14473;DHT22;7322;50.872;4.386;2023-04-24T05:53:10;20.20;99.90
14473;DHT22;7322;50.872;4.386;2023-04-24T05:55:38;20.20;99.90
14473;DHT22;7322;50.872;4.386;2023-04-24T05:58:06;20.20;99.90
14473;DHT22;7322;50.872;4.386;2023-04-24T06:00:41;20.20;99.90
14473;DHT22;7322;50.872;4.386;2023-04-24T06:03:16;20.30;99.90
14473;DHT22;7322;50.872;4.386;2023-04-24T06:06:10;20.30;99.90
14473;DHT22;7322;50.872;4.386;2023-04-24T06:09:02;20.30;99.90
14473;DHT22;7322;50.872;4.386;2023-04-24T06:14:49;20.30;99.90
14473;DHT22;7322;50.872;4.386;2023-04-24T06:17:21;20.20;99.90
14473;DHT22;7322;50.872;4.386;2023-04-24T06:19:49;20.30;99.90
14473;DHT22;7322;50.872;4.386;2023-04-24T06:22:16;20.30;99.90
14473;DHT22;7322;50.872;4.386;2023-04-24T06:24:49;20.20;99.90
14473;DHT22;7322;50.872;4.386;2023-04-24T06:27:30;20.30;99.90
14473;DHT22;7322;50.872;4.386;2023-04-24T06:30:27;20.30;99.90
14473;DHT22;7322;50.872;4.386;2023-04-24T06:32:56;20.20;99.90
14473;DHT22;7322;50.872;4.386;2023-04-24T06:35:35;20.20;99.90
14473;DHT22;7322;50.872;4.386;2023-04-24T06:38:03;20.20;99.90
14473;DHT22;7322;50.872;4.386;2023-04-24T06:43:55;20.10;99.90
14473;DHT22;7322;50.872;4.386;2023-04-24T06:46:33;20.00;99.90
14473;DHT22;7322;50.872;4.386;2023-04-24T06:49:10;20.00;99.90
14473;DHT22;7322;50.872;4.386;2023-04-24T06:51:44;20.00;99.90
14473;DHT22;7322;50.872;4.386;2023-04-24T06:54:11;20.00;99.90
14473;DHT22;7322;50.872;4.386;2023-04-24T06:56:38;20.00;99.90
14473;DHT22;7322;50.872;4.386;2023-04-24T06:59:06;19.90;99.90
14473;DHT22;7322;50.872;4.386;2023-04-24T07:01:33;19.80;99.90
14473;DHT22;7322;50.872;4.386;2023-04-24T07:04:02;19.80;99.90
14473;DHT22;7322;50.872;4.386;2023-04-24T07:06:29;19.70;99.90
14473;DHT22;7322;50.872;4.386;2023-04-24T07:08:58;19.70;99.90
14473;DHT22;7322;50.872;4.386;2023-04-24T07:11:42;19.70;99.90
14473;DHT22;7322;50.872;4.386;2023-04-24T07:14:45;19.80;99.90
14473;DHT22;7322;50.872;4.386;2023-04-24T07:17:42;19.70;99.90
14473;DHT22;7322;50.872;4.386;2023-04-24T07:20:20;19.70;99.90
14473;DHT22;7322;50.872;4.386;2023-04-24T07:22:47;19.60;99.90
14473;DHT22;7322;50.872;4.386;2023-04-24T07:25:18;19.70;99.90
14473;DHT22;7322;50.872;4.386;2023-04-24T07:27:54;19.70;99.90
14473;DHT22;7322;50.872;4.386;2023-04-24T07:30:30;19.80;99.90
14473;DHT22;7322;50.872;4.386;2023-04-24T07:32:58;19.80;99.90
14473;DHT22;7322;50.872;4.386;2023-04-24T07:35:33;19.70;99.90
14473;DHT22;7322;50.872;4.386;2023-04-24T07:38:01;19.70;99.90
14473;DHT22;7322;50.872;4.386;2023-04-24T07:40:37;19.70;99.90
14473;DHT22;7322;50.872;4.386;2023-04-24T07:43:09;19.80;99.90
14473;DHT22;7322;50.872;4.386;2023-04-24T07:45:38;19.80;99.90
14473;DHT22;7322;50.872;4.386;2023-04-24T07:48:09;19.80;99.90
14473;DHT22;7322;50.872;4.386;2023-04-24T07:50:42;19.80;99.90
14473;DHT22;7322;50.872;4.386;2023-04-24T07:53:18;19.80;99.90
14473;DHT22;7322;50.872;4.386;2023-04-24T07:55:46;19.80;99.90
14473;DHT22;7322;50.872;4.386;2023-04-24T07:58:15;19.80;99.90
14473;DHT22;7322;50.872;4.386;2023-04-24T08:00:46;19.90;99.90
14473;DHT22;7322;50.872;4.386;2023-04-24T08:03:13;20.00;99.90
14473;DHT22;7322;50.872;4.386;2023-04-24T08:05:51;20.00;99.90
14473;DHT22;7322;50.872;4.386;2023-04-24T08:08:29;20.10;99.90
14473;DHT22;7322;50.872;4.386;2023-04-24T08:10:57;20.10;99.90
14473;DHT22;7322;50.872;4.386;2023-04-24T08:13:24;20.10;99.90
14473;DHT22;7322;50.872;4.386;2023-04-24T08:16:03;20.10;99.90
14473;DHT22;7322;50.872;4.386;2023-04-24T08:21:26;20.10;99.90
14473;DHT22;7322;50.872;4.386;2023-04-24T08:23:54;20.10;99.90
14473;DHT22;7322;50.872;4.386;2023-04-24T08:26:22;20.00;99.90
14473;DHT22;7322;50.872;4.386;2023-04-24T08:28:50;20.10;99.90
14473;DHT22;7322;50.872;4.386;2023-04-24T08:31:20;20.10;99.90
14473;DHT22;7322;50.872;4.386;2023-04-24T08:33:57;20.10;99.90
14473;DHT22;7322;50.872;4.386;2023-04-24T08:36:29;20.10;99.90
14473;DHT22;7322;50.872;4.386;2023-04-24T08:38:58;20.10;99.90
14473;DHT22;7322;50.872;4.386;2023-04-24T08:41:31;20.00;99.90
14473;DHT22;7322;50.872;4.386;2023-04-24T08:44:07;20.10;99.90
14473;DHT22;7322;50.872;4.386;2023-04-24T08:46:39;20.10;99.90
14473;DHT22;7322;50.872;4.386;2023-04-24T08:49:07;20.10;99.90
14473;DHT22;7322;50.872;4.386;2023-04-24T08:51:49;20.10;99.90
14473;DHT22;7322;50.872;4.386;2023-04-24T08:54:18;20.10;99.90
14473;DHT22;7322;50.872;4.386;2023-04-24T08:56:50;20.10;99.90
14473;DHT22;7322;50.872;4.386;2023-04-24T08:59:19;20.10;99.90
14473;DHT22;7322;50.872;4.386;2023-04-24T09:02:04;20.10;99.90
14473;DHT22;7322;50.872;4.386;2023-04-24T09:04:33;20.10;99.90
14473;DHT22;7322;50.872;4.386;2023-04-24T09:07:01;20.10;99.90
14473;DHT22;7322;50.872;4.386;2023-04-24T09:09:33;20.10;99.90
14473;DHT22;7322;50.872;4.386;2023-04-24T09:12:07;20.10;99.90
14473;DHT22;7322;50.872;4.386;2023-04-24T09:14:50;20.10;99.90
14473;DHT22;7322;50.872;4.386;2023-04-24T09:17:22;20.00;99.90
14473;DHT22;7322;50.872;4.386;2023-04-24T09:19:52;20.10;99.90
14473;DHT22;7322;50.872;4.386;2023-04-24T09:22:20;20.10;99.90
14473;DHT22;7322;50.872;4.386;2023-04-24T09:24:48;20.10;99.90
14473;DHT22;7322;50.872;4.386;2023-04-24T09:27:15;20.20;99.90
14473;DHT22;7322;50.872;4.386;2023-04-24T09:29:53;20.20;99.90
14473;DHT22;7322;50.872;4.386;2023-04-24T09:32:23;20.20;99.90
14473;DHT22;7322;50.872;4.386;2023-04-24T09:35:05;20.20;99.90
14473;DHT22;7322;50.872;4.386;2023-04-24T09:37:35;20.20;99.90
14473;DHT22;7322;50.872;4.386;2023-04-24T09:40:15;20.20;99.90
14473;DHT22;7322;50.872;4.386;2023-04-24T09:42:46;20.20;99.90
14473;DHT22;7322;50.872;4.386;2023-04-24T09:45:14;20.20;99.90
14473;DHT22;7322;50.872;4.386;2023-04-24T09:47:43;20.20;99.90
14473;DHT22;7322;50.872;4.386;2023-04-24T09:50:12;20.30;99.90
14473;DHT22;7322;50.872;4.386;2023-04-24T09:52:43;20.40;99.90
14473;DHT22;7322;50.872;4.386;2023-04-24T09:55:14;20.40;99.90
14473;DHT22;7322;50.872;4.386;2023-04-24T09:57:50;20.40;99.90
14473;DHT22;7322;50.872;4.386;2023-04-24T10:00:26;20.40;99.90
14473;DHT22;7322;50.872;4.386;2023-04-24T10:03:03;20.40;99.90
14473;DHT22;7322;50.872;4.386;2023-04-24T10:05:31;20.40;99.90
14473;DHT22;7322;50.872;4.386;2023-04-24T10:08:04;20.30;99.90
14473;DHT22;7322;50.872;4.386;2023-04-24T10:10:32;20.40;99.90
14473;DHT22;7322;50.872;4.386;2023-04-24T10:13:00;20.40;99.90
14473;DHT22;7322;50.872;4.386;2023-04-24T10:15:27;20.40;99.90
14473;DHT22;7322;50.872;4.386;2023-04-24T10:17:59;20.40;99.90
14473;DHT22;7322;50.872;4.386;2023-04-24T10:20:28;20.40;99.90
14473;DHT22;7322;50.872;4.386;2023-04-24T10:22:58;20.30;99.90
14473;DHT22;7322;50.872;4.386;2023-04-24T10:25:27;20.20;99.90
14473;DHT22;7322;50.872;4.386;2023-04-24T10:27:57;20.20;99.90
14473;DHT22;7322;50.872;4.386;2023-04-24T10:30:32;20.10;99.90
14473;DHT22;7322;50.872;4.386;2023-04-24T10:36:10;20.20;99.90
14473;DHT22;7322;50.872;4.386;2023-04-24T10:38:40;20.20;99.90
14473;DHT22;7322;50.872;4.386;2023-04-24T10:41:10;20.30;99.90
14473;DHT22;7322;50.872;4.386;2023-04-24T10:43:42;20.30;99.90
14473;DHT22;7322;50.872;4.386;2023-04-24T10:46:09;20.30;99.90
14473;DHT22;7322;50.872;4.386;2023-04-24T10:48:42;20.30;99.90
14473;DHT22;7322;50.872;4.386;2023-04-24T10:51:12;20.30;99.90
14473;DHT22;7322;50.872;4.386;2023-04-24T10:53:41;20.30;99.90
14473;DHT22;7322;50.872;4.386;2023-04-24T10:56:09;20.30;99.90
14473;DHT22;7322;50.872;4.386;2023-04-24T10:58:40;20.30;99.90
14473;DHT22;7322;50.872;4.386;2023-04-24T11:01:25;20.30;99.90
14473;DHT22;7322;50.872;4.386;2023-04-24T11:03:58;20.40;99.90
14473;DHT22;7322;50.872;4.386;2023-04-24T11:06:34;20.50;99.90
14473;DHT22;7322;50.872;4.386;2023-04-24T11:09:05;20.50;99.90
14473;DHT22;7322;50.872;4.386;2023-04-24T11:11:45;20.60;99.90
14473;DHT22;7322;50.872;4.386;2023-04-24T11:17:36;20.70;99.90
14473;DHT22;7322;50.872;4.386;2023-04-24T11:20:10;20.70;99.90
14473;DHT22;7322;50.872;4.386;2023-04-24T11:22:41;20.70;99.90
14473;DHT22;7322;50.872;4.386;2023-04-24T11:25:09;20.70;99.90
14473;DHT22;7322;50.872;4.386;2023-04-24T11:27:45;20.80;99.90
14473;DHT22;7322;50.872;4.386;2023-04-24T11:30:17;20.70;99.90
14473;DHT22;7322;50.872;4.386;2023-04-24T11:32:51;20.60;99.90
14473;DHT22;7322;50.872;4.386;2023-04-24T11:35:29;20.70;99.90
14473;DHT22;7322;50.872;4.386;2023-04-24T11:38:10;20.80;99.90
14473;DHT22;7322;50.872;4.386;2023-04-24T11:40:37;20.80;99.90
14473;DHT22;7322;50.872;4.386;2023-04-24T11:43:08;20.80;99.90
14473;DHT22;7322;50.872;4.386;2023-04-24T11:45:35;20.80;99.90
14473;DHT22;7322;50.872;4.386;2023-04-24T11:48:03;20.90;99.90
14473;DHT22;7322;50.872;4.386;2023-04-24T11:50:32;20.90;99.90
14473;DHT22;7322;50.872;4.386;2023-04-24T11:53:01;20.90;99.90
14473;DHT22;7322;50.872;4.386;2023-04-24T11:55:37;20.90;99.90
14473;DHT22;7322;50.872;4.386;2023-04-24T11:58:12;20.90;99.90
14473;DHT22;7322;50.872;4.386;2023-04-24T12:00:40;20.90;99.90
14473;DHT22;7322;50.872;4.386;2023-04-24T12:03:08;20.90;99.90
14473;DHT22;7322;50.872;4.386;2023-04-24T12:05:38;20.90;99.90
14473;DHT22;7322;50.872;4.386;2023-04-24T12:08:05;20.90;99.90
14473;DHT22;7322;50.872;4.386;2023-04-24T12:10:33;20.90;99.90
14473;DHT22;7322;50.872;4.386;2023-04-24T12:13:01;20.90;99.90
14473;DHT22;7322;50.872;4.386;2023-04-24T12:15:29;20.90;99.90
14473;DHT22;7322;50.872;4.386;2023-04-24T12:17:56;20.80;99.90
14473;DHT22;7322;50.872;4.386;2023-04-24T12:20:24;20.90;99.90
14473;DHT22;7322;50.872;4.386;2023-04-24T12:22:53;20.90;99.90
14473;DHT22;7322;50.872;4.386;2023-04-24T12:25:22;20.90;99.90
14473;DHT22;7322;50.872;4.386;2023-04-24T12:27:53;21.00;99.90
14473;DHT22;7322;50.872;4.386;2023-04-24T12:30:27;21.00;99.90
14473;DHT22;7322;50.872;4.386;2023-04-24T12:32:57;21.10;99.90
14473;DHT22;7322;50.872;4.386;2023-04-24T12:35:27;21.10;99.90
14473;DHT22;7322;50.872;4.386;2023-04-24T12:37:54;21.10;99.90
14473;DHT22;7322;50.872;4.386;2023-04-24T12:40:21;21.00;99.90
14473;DHT22;7322;50.872;4.386;2023-04-24T12:42:52;21.10;99.90
14473;DHT22;7322;50.872;4.386;2023-04-24T12:45:19;21.10;99.90
14473;DHT22;7322;50.872;4.386;2023-04-24T12:47:50;21.10;99.90
14473;DHT22;7322;50.872;4.386;2023-04-24T12:50:17;21.10;99.90
14473;DHT22;7322;50.872;4.386;2023-04-24T12:52:44;21.00;99.90
14473;DHT22;7322;50.872;4.386;2023-04-24T12:55:11;21.00;99.90
14473;DHT22;7322;50.872;4.386;2023-04-24T12:57:40;21.10;99.90
14473;DHT22;7322;50.872;4.386;2023-04-24T13:00:09;21.10;99.90
14473;DHT22;7322;50.872;4.386;2023-04-24T13:02:36;21.10;99.90
14473;DHT22;7322;50.872;4.386;2023-04-24T13:05:05;21.10;99.90
14473;DHT22;7322;50.872;4.386;2023-04-24T13:07:33;21.00;99.90
14473;DHT22;7322;50.872;4.386;2023-04-24T13:10:00;21.00;99.90
14473;DHT22;7322;50.872;4.386;2023-04-24T13:12:27;21.00;99.90
14473;DHT22;7322;50.872;4.386;2023-04-24T13:14:54;21.00;99.90
14473;DHT22;7322;50.872;4.386;2023-04-24T13:17:22;21.00;99.90
14473;DHT22;7322;50.872;4.386;2023-04-24T13:19:51;20.90;99.90
14473;DHT22;7322;50.872;4.386;2023-04-24T13:22:22;20.80;99.90
14473;DHT22;7322;50.872;4.386;2023-04-24T13:24:50;20.80;99.90
14473;DHT22;7322;50.872;4.386;2023-04-24T13:27:17;20.80;99.90
14473;DHT22;7322;50.872;4.386;2023-04-24T13:29:45;20.80;99.90
14473;DHT22;7322;50.872;4.386;2023-04-24T13:32:12;20.80;99.90
14473;DHT22;7322;50.872;4.386;2023-04-24T13:34:39;20.70;99.90
14473;DHT22;7322;50.872;4.386;2023-04-24T13:37:06;20.70;99.90
14473;DHT22;7322;50.872;4.386;2023-04-24T13:39:34;20.70;99.90
14473;DHT22;7322;50.872;4.386;2023-04-24T13:42:02;20.70;99.90
14473;DHT22;7322;50.872;4.386;2023-04-24T13:44:29;20.70;99.90
14473;DHT22;7322;50.872;4.386;2023-04-24T13:46:57;20.70;99.90
14473;DHT22;7322;50.872;4.386;2023-04-24T13:49:25;20.80;99.90
14473;DHT22;7322;50.872;4.386;2023-04-24T13:51:53;20.80;99.90
14473;DHT22;7322;50.872;4.386;2023-04-24T13:54:27;20.80;99.90
14473;DHT22;7322;50.872;4.386;2023-04-24T13:56:57;20.80;99.90
14473;DHT22;7322;50.872;4.386;2023-04-24T13:59:24;20.80;99.90
14473;DHT22;7322;50.872;4.386;2023-04-24T14:01:51;20.80;99.90
14473;DHT22;7322;50.872;4.386;2023-04-24T14:04:18;20.80;99.90
14473;DHT22;7322;50.872;4.386;2023-04-24T14:06:47;20.80;99.90
14473;DHT22;7322;50.872;4.386;2023-04-24T14:09:14;20.90;99.90
14473;DHT22;7322;50.872;4.386;2023-04-24T14:11:41;20.90;99.90
14473;DHT22;7322;50.872;4.386;2023-04-24T14:14:13;21.00;99.90
14473;DHT22;7322;50.872;4.386;2023-04-24T14:16:40;21.00;99.90
14473;DHT22;7322;50.872;4.386;2023-04-24T14:19:07;21.00;99.90
14473;DHT22;7322;50.872;4.386;2023-04-24T14:21:34;21.00;99.90
14473;DHT22;7322;50.872;4.386;2023-04-24T14:24:01;21.00;99.90
14473;DHT22;7322;50.872;4.386;2023-04-24T14:26:28;21.00;99.90
14473;DHT22;7322;50.872;4.386;2023-04-24T14:28:55;21.00;99.90
14473;DHT22;7322;50.872;4.386;2023-04-24T14:31:25;21.00;99.90
14473;DHT22;7322;50.872;4.386;2023-04-24T14:33:52;21.00;99.90
14473;DHT22;7322;50.872;4.386;2023-04-24T14:36:19;20.90;99.90
14473;DHT22;7322;50.872;4.386;2023-04-24T14:38:46;20.90;99.90
14473;DHT22;7322;50.872;4.386;2023-04-24T14:41:13;20.90;99.90
14473;DHT22;7322;50.872;4.386;2023-04-24T14:43:41;20.90;99.90
14473;DHT22;7322;50.872;4.386;2023-04-24T14:46:08;20.90;99.90
14473;DHT22;7322;50.872;4.386;2023-04-24T14:48:36;20.90;99.90
14473;DHT22;7322;50.872;4.386;2023-04-24T14:51:04;20.90;99.90
14473;DHT22;7322;50.872;4.386;2023-04-24T14:53:32;20.90;99.90
14473;DHT22;7322;50.872;4.386;2023-04-24T14:55:59;20.90;99.90
14473;DHT22;7322;50.872;4.386;2023-04-24T14:58:26;20.90;99.90
14473;DHT22;7322;50.872;4.386;2023-04-24T15:00:54;20.90;99.90
14473;DHT22;7322;50.872;4.386;2023-04-24T15:03:23;20.90;99.90
14473;DHT22;7322;50.872;4.386;2023-04-24T15:05:53;20.90;99.90
14473;DHT22;7322;50.872;4.386;2023-04-24T15:08:22;20.90;99.90
14473;DHT22;7322;50.872;4.386;2023-04-24T15:10:49;20.90;99.90
14473;DHT22;7322;50.872;4.386;2023-04-24T15:13:16;20.90;99.90
14473;DHT22;7322;50.872;4.386;2023-04-24T15:15:43;20.90;99.90
14473;DHT22;7322;50.872;4.386;2023-04-24T15:18:12;20.90;99.90
14473;DHT22;7322;50.872;4.386;2023-04-24T15:20:39;21.00;99.90
14473;DHT22;7322;50.872;4.386;2023-04-24T15:23:09;21.00;99.90
14473;DHT22;7322;50.872;4.386;2023-04-24T15:25:37;21.00;99.90
14473;DHT22;7322;50.872;4.386;2023-04-24T15:28:05;21.00;99.90
14473;DHT22;7322;50.872;4.386;2023-04-24T15:30:33;20.90;99.90
14473;DHT22;7322;50.872;4.386;2023-04-24T15:33:00;21.00;99.90
14473;DHT22;7322;50.872;4.386;2023-04-24T15:35:29;20.90;99.90
14473;DHT22;7322;50.872;4.386;2023-04-24T15:37:57;20.90;99.90
14473;DHT22;7322;50.872;4.386;2023-04-24T15:40:26;20.90;99.90
14473;DHT22;7322;50.872;4.386;2023-04-24T15:42:53;20.90;99.90
14473;DHT22;7322;50.872;4.386;2023-04-24T15:45:23;20.90;99.90
14473;DHT22;7322;50.872;4.386;2023-04-24T15:48:01;20.90;99.90
14473;DHT22;7322;50.872;4.386;2023-04-24T15:50:31;20.90;99.90
14473;DHT22;7322;50.872;4.386;2023-04-24T15:52:59;20.90;99.90
14473;DHT22;7322;50.872;4.386;2023-04-24T15:55:28;20.90;99.90
14473;DHT22;7322;50.872;4.386;2023-04-24T15:58:13;20.90;99.90
14473;DHT22;7322;50.872;4.386;2023-04-24T16:00:40;20.90;99.90
14473;DHT22;7322;50.872;4.386;2023-04-24T16:03:07;20.80;99.90
14473;DHT22;7322;50.872;4.386;2023-04-24T16:05:36;20.80;99.90
14473;DHT22;7322;50.872;4.386;2023-04-24T16:08:13;20.80;99.90
14473;DHT22;7322;50.872;4.386;2023-04-24T16:10:44;20.80;99.90
14473;DHT22;7322;50.872;4.386;2023-04-24T16:13:15;20.80;99.90
14473;DHT22;7322;50.872;4.386;2023-04-24T16:15:55;20.80;99.90
14473;DHT22;7322;50.872;4.386;2023-04-24T16:18:22;20.80;99.90
14473;DHT22;7322;50.872;4.386;2023-04-24T16:20:59;20.70;99.90
14473;DHT22;7322;50.872;4.386;2023-04-24T16:23:37;20.60;99.90
14473;DHT22;7322;50.872;4.386;2023-04-24T16:26:14;20.60;99.90
14473;DHT22;7322;50.872;4.386;2023-04-24T16:31:35;20.50;99.90
14473;DHT22;7322;50.872;4.386;2023-04-24T16:34:04;20.50;99.90
14473;DHT22;7322;50.872;4.386;2023-04-24T16:36:33;20.50;99.90
14473;DHT22;7322;50.872;4.386;2023-04-24T16:39:26;20.40;99.90
14473;DHT22;7322;50.872;4.386;2023-04-24T16:41:54;20.40;99.90
14473;DHT22;7322;50.872;4.386;2023-04-24T16:44:29;20.40;99.90
14473;DHT22;7322;50.872;4.386;2023-04-24T16:46:56;20.40;99.90